createdAt,value
2018-05-10T19:27:51.443Z,1011.88
2018-05-10T19:28:51.053Z,1011.89
2018-05-10T19:30:47.197Z,1011.95
2018-05-10T19:31:46.065Z,1011.97
2018-05-10T19:33:40.970Z,1012.05
2018-05-10T19:34:41.046Z,1012.05
2018-05-10T19:36:33.478Z,1012.07
2018-05-10T19:37:33.854Z,1012.07
2018-05-10T19:39:27.945Z,1012.11
2018-05-10T19:40:27.995Z,1012.12
2018-05-10T19:42:21.076Z,1012.14
2018-05-10T19:43:20.524Z,1012.17
2018-05-10T19:45:15.956Z,1012.25
2018-05-10T19:46:13.942Z,1012.25
2018-05-10T19:48:08.662Z,1012.30
2018-05-10T19:49:07.210Z,1012.29
2018-05-10T19:51:01.199Z,1012.36
2018-05-10T19:52:01.779Z,1012.36
2018-05-10T19:53:54.024Z,1012.40
2018-05-10T19:54:53.469Z,1012.41
2018-05-10T19:56:49.095Z,1012.41
2018-05-10T19:57:46.275Z,1012.41
2018-05-10T19:59:40.302Z,1012.45
2018-05-10T20:00:41.210Z,1012.44
2018-05-10T20:02:34.456Z,1012.49
2018-05-10T20:03:34.478Z,1012.49
2018-05-10T20:05:27.830Z,1012.50
2018-05-10T20:06:26.042Z,1012.50
2018-05-10T20:08:21.717Z,1012.53
2018-05-10T20:09:20.151Z,1012.52
2018-05-10T20:11:14.148Z,1012.58
2018-05-10T20:12:12.964Z,1012.55
2018-05-10T20:14:07.551Z,1012.59
2018-05-10T20:15:07.413Z,1012.57
2018-05-10T20:17:00.390Z,1012.65
2018-05-10T20:17:59.115Z,1012.72
2018-05-10T20:19:53.501Z,1012.72
2018-05-10T20:20:52.056Z,1012.75
2018-05-10T20:22:46.379Z,1012.82
2018-05-10T20:23:45.617Z,1012.83
2018-05-10T20:25:41.194Z,1012.84
2018-05-10T20:26:40.057Z,1012.84
2018-05-10T20:28:33.622Z,1012.90
2018-05-10T20:29:32.694Z,1012.88
2018-05-10T20:31:26.477Z,1012.95
2018-05-10T20:32:27.424Z,1012.93
2018-05-10T20:34:20.301Z,1012.95
2018-05-10T20:35:19.160Z,1012.96
2018-05-10T20:37:14.305Z,1012.98
2018-05-10T20:38:14.139Z,1012.96
2018-05-10T20:40:07.676Z,1012.97
2018-05-10T20:41:07.411Z,1013.01
2018-05-10T20:43:01.280Z,1013.03
2018-05-10T20:44:00.020Z,1013.09
2018-05-10T20:45:54.774Z,1013.06
2018-05-10T20:46:54.225Z,1013.08
2018-05-10T20:48:48.219Z,1013.11
2018-05-10T20:49:47.897Z,1013.15
2018-05-10T20:51:41.944Z,1013.11
2018-05-10T20:52:42.384Z,1013.15
2018-05-10T20:54:35.706Z,1013.17
2018-05-10T20:55:35.599Z,1013.18
2018-05-10T20:57:28.935Z,1013.22
2018-05-10T20:58:29.193Z,1013.24
2018-05-10T21:00:21.609Z,1013.28
2018-05-10T21:01:21.352Z,1013.26
2018-05-10T21:03:16.444Z,1013.27
2018-05-10T21:04:14.668Z,1013.28
2018-05-10T21:06:09.364Z,1013.27
2018-05-10T21:07:08.967Z,1013.30
2018-05-10T21:09:01.855Z,1013.35
2018-05-10T21:10:01.112Z,1013.34
2018-05-10T21:11:55.549Z,1013.32
2018-05-10T21:12:55.643Z,1013.35
2018-05-10T21:14:48.069Z,1013.39
2018-05-10T21:15:49.021Z,1013.38
2018-05-10T21:17:41.429Z,1013.37
2018-05-10T21:18:42.393Z,1013.41
2018-05-10T21:20:35.320Z,1013.42
2018-05-10T21:21:35.314Z,1013.48
2018-05-10T21:23:28.185Z,1013.51
2018-05-10T21:24:28.114Z,1013.52
2018-05-10T21:26:22.014Z,1013.54
2018-05-10T21:27:21.797Z,1013.58
2018-05-10T21:29:15.294Z,1013.57
2018-05-10T21:30:15.077Z,1013.58
2018-05-10T21:32:08.090Z,1013.63
2018-05-10T21:33:09.040Z,1013.64
2018-05-10T21:35:01.989Z,1013.68
2018-05-10T21:36:02.404Z,1013.62
2018-05-10T21:37:54.820Z,1013.63
2018-05-10T21:38:54.819Z,1013.69
2018-05-10T21:40:49.233Z,1013.75
2018-05-10T21:41:49.166Z,1013.76
2018-05-10T21:43:42.089Z,1013.77
2018-05-10T21:44:43.005Z,1013.78
2018-05-10T21:46:35.444Z,1013.81
2018-05-10T21:47:34.881Z,1013.80
2018-05-10T21:49:28.908Z,1013.83
2018-05-10T21:50:28.785Z,1013.85
2018-05-10T21:52:22.160Z,1013.84
2018-05-10T21:53:22.147Z,1013.86
2018-05-10T21:55:14.784Z,1013.89
2018-05-10T21:56:14.608Z,1013.88
2018-05-10T21:58:08.967Z,1013.95
2018-05-10T21:59:09.543Z,1013.92
2018-05-10T22:01:01.839Z,1013.97
2018-05-10T22:02:01.083Z,1013.95
2018-05-10T22:03:55.179Z,1013.98
2018-05-10T22:04:55.009Z,1014.00
2018-05-10T22:06:47.939Z,1013.99
2018-05-10T22:07:47.848Z,1014.02
2018-05-10T22:09:41.797Z,1014.03
2018-05-10T22:10:40.967Z,1014.00
2018-05-10T22:12:35.136Z,1014.00
2018-05-10T22:13:34.607Z,1014.07
2018-05-10T22:15:28.310Z,1014.03
2018-05-10T22:16:27.777Z,1014.05
2018-05-10T22:18:21.282Z,1014.12
2018-05-10T22:19:21.057Z,1014.07
2018-05-10T22:21:14.517Z,1014.13
2018-05-10T22:22:14.939Z,1014.10
2018-05-10T22:24:08.421Z,1014.07
2018-05-10T22:25:07.494Z,1014.10
2018-05-10T22:27:01.273Z,1014.04
2018-05-10T22:28:01.185Z,1014.02
2018-05-10T22:29:54.554Z,1014.03
2018-05-10T22:30:54.727Z,1013.99
2018-05-10T22:32:48.519Z,1014.03
2018-05-10T22:33:48.445Z,1014.04
2018-05-10T22:35:41.326Z,1014.01
2018-05-10T22:36:41.339Z,1014.05
2018-05-10T22:38:34.704Z,1014.02
2018-05-10T22:39:34.302Z,1014.05
2018-05-10T22:41:28.589Z,1014.05
2018-05-10T22:42:28.147Z,1014.10
2018-05-10T22:44:21.946Z,1014.16
2018-05-10T22:45:21.403Z,1014.19
2018-05-10T22:47:14.824Z,1014.16
2018-05-10T22:48:14.411Z,1014.19
2018-05-10T22:50:08.732Z,1014.21
2018-05-10T22:51:08.140Z,1014.19
2018-05-10T22:53:02.070Z,1014.22
2018-05-10T22:54:01.440Z,1014.23
2018-05-10T22:55:55.000Z,1014.25
2018-05-10T22:56:54.884Z,1014.28
2018-05-10T22:58:48.755Z,1014.27
2018-05-10T22:59:48.304Z,1014.27
2018-05-10T23:01:42.200Z,1014.28
2018-05-10T23:02:41.151Z,1014.30
2018-05-10T23:04:35.268Z,1014.29
2018-05-10T23:05:35.403Z,1014.32
2018-05-10T23:07:28.979Z,1014.32
2018-05-10T23:08:29.374Z,1014.32
2018-05-10T23:10:22.243Z,1014.37
2018-05-10T23:11:22.217Z,1014.36
2018-05-10T23:13:15.113Z,1014.34
2018-05-10T23:14:15.107Z,1014.38
2018-05-10T23:16:08.494Z,1014.36
2018-05-10T23:17:08.969Z,1014.38
2018-05-10T23:19:02.837Z,1014.39
2018-05-10T23:20:01.383Z,1014.35
2018-05-10T23:21:56.142Z,1014.38
2018-05-10T23:22:55.148Z,1014.39
2018-05-10T23:24:49.142Z,1014.39
2018-05-10T23:25:48.314Z,1014.37
2018-05-10T23:27:41.976Z,1014.39
2018-05-10T23:28:41.584Z,1014.39
2018-05-10T23:30:35.367Z,1014.37
2018-05-10T23:31:35.310Z,1014.38
2018-05-10T23:33:28.695Z,1014.36
2018-05-10T23:34:28.237Z,1014.39
2018-05-10T23:36:22.092Z,1014.38
2018-05-10T23:37:22.519Z,1014.40
2018-05-10T23:39:15.969Z,1014.42
2018-05-10T23:40:15.422Z,1014.45
2018-05-10T23:42:08.825Z,1014.43
2018-05-10T23:43:08.708Z,1014.44
2018-05-10T23:45:02.788Z,1014.44
2018-05-10T23:47:15.526Z,1014.41
2018-05-10T23:48:15.513Z,1014.44
2018-05-10T23:50:08.937Z,1014.44
2018-05-10T23:51:08.538Z,1014.46
2018-05-10T23:53:02.221Z,1014.45
2018-05-10T23:54:02.225Z,1014.45
2018-05-10T23:55:55.682Z,1014.50
2018-05-10T23:56:56.095Z,1014.51
2018-05-10T23:58:49.496Z,1014.52
2018-05-10T23:59:49.002Z,1014.48
